Time;durP1;ratioP1;P1;durP2;ratioP2;P2;SDS_P1;SDS_P2;PMS_P1;PMS_P2;Temp;Humidity;BMP_temperature;BMP_pressure;BME280_temperature;BME280_humidity;BME280_pressure;Samples;Min_cycle;Max_cycle;Signal;HPM_P1;HPM_P2
2023/06/18 00:00:32;;;;;;;6.40;4.60;;;;;;;21.06;49.60;101141.53;5093446;28;20476;-75
2023/06/18 00:03:17;;;;;;;5.93;4.53;;;;;;;21.08;49.69;101144.94;5102246;28;20139;-75
2023/06/18 00:06:03;;;;;;;5.82;4.22;;;;;;;21.08;49.35;101147.63;5099779;28;20094;-75
2023/06/18 00:08:48;;;;;;;6.78;4.30;;;;;;;21.06;49.88;101144.22;5094273;28;20063;-74
2023/06/18 00:11:33;;;;;;;9.13;4.88;;;;;;;20.99;50.39;101148.28;5105164;28;20040;-74
2023/06/18 00:14:19;;;;;;;5.53;4.55;;;;;;;20.99;50.26;101138.44;5089919;28;20040;-73
2023/06/18 00:17:05;;;;;;;6.72;4.75;;;;;;;20.98;50.67;101134.03;5088929;28;20052;-72
2023/06/18 00:20:09;;;;;;;9.93;5.00;;;;;;;21.02;50.54;101137.34;5118920;27;20039;-72
2023/06/18 00:23:12;;;;;;;6.43;4.90;;;;;;;21.00;50.55;101128.56;5103074;27;20048;-75
2023/06/18 00:26:15;;;;;;;9.68;4.95;;;;;;;21.02;50.51;101123.94;5102670;28;20040;-75
2023/06/18 00:29:05;;;;;;;5.55;4.63;;;;;;;21.01;50.88;101130.28;5098805;28;20102;-74
2023/06/18 00:31:52;;;;;;;6.38;4.65;;;;;;;20.97;51.25;101135.00;5096424;28;20040;-74
2023/06/18 00:34:55;;;;;;;8.23;4.85;;;;;;;20.94;51.01;101135.19;5124955;27;20047;-74
2023/06/18 00:37:59;;;;;;;9.70;5.35;;;;;;;20.96;51.13;101130.59;5081548;28;20040;-73
2023/06/18 00:41:02;;;;;;;6.85;4.97;;;;;;;20.96;50.89;101127.06;5096365;28;20146;-72
2023/06/18 00:43:48;;;;;;;7.60;5.35;;;;;;;20.98;51.47;101133.16;5092924;28;20056;-72
2023/06/18 00:46:36;;;;;;;6.78;4.82;;;;;;;20.90;51.28;101125.69;5083812;28;20090;-72
2023/06/18 00:49:22;;;;;;;8.77;4.82;;;;;;;20.88;51.33;101116.88;5111149;28;20079;-75
2023/06/18 00:52:13;;;;;;;7.10;4.85;;;;;;;20.83;52.07;101127.03;5109041;28;20479;-75
2023/06/18 00:54:59;;;;;;;9.48;5.60;;;;;;;20.74;51.90;101123.19;5111208;27;20048;-74
2023/06/18 00:57:49;;;;;;;5.90;4.72;;;;;;;20.72;52.11;101117.88;5110229;28;20048;-75
2023/06/18 01:00:53;;;;;;;8.30;4.68;;;;;;;20.67;52.22;101116.50;5103646;28;20042;-75
2023/06/18 01:03:39;;;;;;;7.13;5.25;;;;;;;20.66;52.55;101112.09;5100733;28;20119;-75
2023/06/18 01:06:27;;;;;;;7.78;4.90;;;;;;;20.63;52.72;101113.16;5099000;28;20052;-75
2023/06/18 01:09:23;;;;;;;7.25;5.38;;;;;;;20.61;52.78;101115.97;5092839;28;20048;-75
2023/06/18 01:12:10;;;;;;;6.40;4.97;;;;;;;20.59;53.09;101112.53;5088360;28;20523;-75
2023/06/18 01:14:56;;;;;;;5.97;5.38;;;;;;;20.53;53.43;101115.63;5100465;27;20048;-76
2023/06/18 01:17:48;;;;;;;8.00;5.55;;;;;;;20.45;53.71;101107.28;5088027;28;20044;-75
2023/06/18 01:20:41;;;;;;;7.07;5.68;;;;;;;20.30;53.83;101109.13;5105569;27;20048;-75
2023/06/18 01:23:31;;;;;;;8.52;5.63;;;;;;;20.17;54.34;101114.47;5109722;27;20799;-76
2023/06/18 01:26:21;;;;;;;10.15;5.80;;;;;;;20.05;54.36;101118.81;5099380;28;20056;-74
2023/06/18 01:29:10;;;;;;;7.55;5.47;;;;;;;19.91;54.27;101113.50;5112967;27;20048;-74
2023/06/18 01:31:56;;;;;;;10.95;6.32;;;;;;;19.74;54.63;101118.13;5082703;28;20126;-74
2023/06/18 01:34:42;;;;;;;9.85;6.63;;;;;;;19.62;54.20;101118.91;5097140;28;20049;-74
2023/06/18 01:37:44;;;;;;;9.88;5.65;;;;;;;19.54;54.69;101119.38;5099992;28;20052;-74
2023/06/18 01:40:49;;;;;;;10.63;6.55;;;;;;;19.45;55.01;101115.50;5098109;28;20044;-72
2023/06/18 01:43:51;;;;;;;8.00;5.97;;;;;;;19.36;55.20;101110.75;5090644;28;20496;-72
2023/06/18 01:46:36;;;;;;;8.77;5.93;;;;;;;19.26;55.77;101114.94;5109370;28;20048;-72
2023/06/18 01:49:23;;;;;;;10.43;6.28;;;;;;;19.19;56.59;101109.97;5110780;27;20123;-72
2023/06/18 01:52:12;;;;;;;9.35;5.75;;;;;;;19.17;57.39;101108.34;5107966;28;20066;-72
2023/06/18 01:55:01;;;;;;;7.72;5.80;;;;;;;19.16;57.81;101103.97;5105210;28;20044;-72
2023/06/18 01:57:47;;;;;;;10.98;6.55;;;;;;;19.16;58.35;101101.28;5093646;28;20066;-72
2023/06/18 02:00:33;;;;;;;8.40;6.50;;;;;;;19.09;58.69;101104.34;5104873;28;20040;-72
2023/06/18 02:03:40;;;;;;;8.43;6.33;;;;;;;19.01;59.07;101109.31;5099629;28;20040;-72
2023/06/18 02:06:26;;;;;;;11.82;6.82;;;;;;;18.98;58.68;101098.81;5108784;28;20277;-72
2023/06/18 02:09:11;;;;;;;10.32;6.28;;;;;;;18.97;58.99;101098.91;5109234;28;20087;-72
2023/06/18 02:11:58;;;;;;;11.45;7.13;;;;;;;18.98;58.70;101101.50;5102318;27;20075;-72
2023/06/18 02:15:01;;;;;;;9.48;6.60;;;;;;;18.95;58.74;101108.84;5089934;28;20036;-72
2023/06/18 02:17:47;;;;;;;11.40;6.57;;;;;;;18.94;59.00;101099.94;5102058;28;20064;-72
2023/06/18 02:20:50;;;;;;;10.27;7.10;;;;;;;18.97;59.18;101096.25;5105971;28;20535;-72
2023/06/18 02:23:35;;;;;;;8.88;6.40;;;;;;;19.05;59.25;101085.94;5091627;27;20048;-74
2023/06/18 02:26:38;;;;;;;11.32;6.60;;;;;;;19.11;59.07;101082.03;5104633;27;20060;-74
2023/06/18 02:29:41;;;;;;;9.50;7.30;;;;;;;19.10;59.25;101078.47;5106931;28;20564;-73
2023/06/18 02:32:31;;;;;;;8.00;6.32;;;;;;;19.05;59.25;101080.59;5095560;28;20044;-73
2023/06/18 02:35:16;;;;;;;10.70;7.70;;;;;;;18.99;59.53;101078.28;5102635;28;20052;-74
2023/06/18 02:38:02;;;;;;;9.38;7.93;;;;;;;18.91;60.15;101092.13;5093580;28;20147;-76
2023/06/18 02:41:06;;;;;;;11.20;7.63;;;;;;;18.77;60.59;101082.28;5106141;28;20524;-76
2023/06/18 02:43:52;;;;;;;9.63;7.50;;;;;;;18.62;61.17;101087.59;5078754;28;20126;-76
2023/06/18 02:46:38;;;;;;;10.93;7.75;;;;;;;18.52;61.72;101083.75;5097768;28;20979;-76
2023/06/18 02:49:23;;;;;;;13.30;8.70;;;;;;;18.37;62.25;101080.19;5082990;28;20127;-76
2023/06/18 02:52:09;;;;;;;10.20;7.75;;;;;;;18.29;62.21;101080.63;5091738;28;20049;-75
2023/06/18 02:54:54;;;;;;;11.45;7.95;;;;;;;18.26;62.63;101083.47;5114190;27;20056;-75
2023/06/18 02:57:40;;;;;;;9.82;7.65;;;;;;;18.20;62.60;101080.34;5100642;27;20044;-75
2023/06/18 03:00:26;;;;;;;9.80;7.43;;;;;;;18.12;62.66;101078.13;5086141;28;20497;-75
2023/06/18 03:03:14;;;;;;;12.50;8.00;;;;;;;18.11;62.57;101081.72;5073325;28;20508;-75
2023/06/18 03:06:02;;;;;;;9.02;7.30;;;;;;;18.06;62.48;101081.16;5089994;28;20128;-75
2023/06/18 03:08:48;;;;;;;10.80;7.90;;;;;;;18.02;62.68;101080.44;5089183;28;20047;-75
2023/06/18 03:11:34;;;;;;;10.45;7.85;;;;;;;17.97;63.06;101086.03;5106236;28;20070;-75
2023/06/18 03:14:22;;;;;;;10.23;7.70;;;;;;;17.91;63.12;101077.50;5090323;28;20052;-74
2023/06/18 03:17:08;;;;;;;10.40;7.68;;;;;;;17.87;62.60;101084.81;5081753;28;20048;-75
2023/06/18 03:19:55;;;;;;;11.07;7.55;;;;;;;17.84;62.16;101085.00;5109528;27;20060;-74
2023/06/18 03:22:41;;;;;;;12.10;8.07;;;;;;;17.81;62.08;101083.38;5080737;28;20044;-74
2023/06/18 03:25:27;;;;;;;8.32;7.40;;;;;;;17.80;62.51;101084.34;5096056;27;20780;-73
2023/06/18 03:28:12;;;;;;;10.75;8.02;;;;;;;17.79;62.88;101079.94;5109474;27;20602;-73
2023/06/18 03:30:59;;;;;;;10.25;8.02;;;;;;;17.83;63.51;101084.13;5094574;27;20531;-73
2023/06/18 03:33:46;;;;;;;13.70;8.57;;;;;;;17.83;63.64;101080.63;5087014;28;20492;-73
2023/06/18 03:36:39;;;;;;;9.65;7.68;;;;;;;17.86;63.53;101085.75;5097502;27;20447;-74
2023/06/18 03:39:26;;;;;;;11.95;8.52;;;;;;;17.86;63.00;101080.44;5094002;28;20048;-73
2023/06/18 03:42:12;;;;;;;11.65;7.85;;;;;;;17.83;62.70;101084.13;5091895;27;20713;-74
2023/06/18 03:44:58;;;;;;;10.10;7.70;;;;;;;17.81;62.70;101083.38;5096000;28;20130;-74
2023/06/18 03:47:44;;;;;;;10.95;8.40;;;;;;;17.85;62.89;101084.06;5089795;28;20036;-76
2023/06/18 03:50:30;;;;;;;11.35;8.43;;;;;;;17.93;63.22;101083.59;5078415;27;20048;-75
2023/06/18 03:53:15;;;;;;;11.45;8.20;;;;;;;18.05;63.26;101090.09;5110969;27;20040;-74
2023/06/18 03:56:00;;;;;;;11.02;8.27;;;;;;;18.14;63.63;101089.56;5097331;28;20785;-75
2023/06/18 03:58:48;;;;;;;10.93;8.38;;;;;;;18.15;62.93;101096.63;5091413;28;20547;-74
2023/06/18 04:01:33;;;;;;;11.50;8.63;;;;;;;18.15;62.91;101097.47;5112009;28;20601;-74
2023/06/18 04:04:19;;;;;;;11.63;8.60;;;;;;;18.20;63.21;101091.84;5105672;28;20044;-75
2023/06/18 04:07:04;;;;;;;9.68;7.82;;;;;;;18.27;63.35;101097.69;5098559;27;20052;-75
2023/06/18 04:09:50;;;;;;;8.80;7.70;;;;;;;18.43;63.27;101092.31;5111247;27;20109;-75
2023/06/18 04:12:36;;;;;;;14.48;8.73;;;;;;;18.62;63.12;101087.59;5109220;27;20448;-76
2023/06/18 04:15:21;;;;;;;11.38;7.13;;;;;;;18.76;62.52;101092.09;5096896;28;20969;-81
2023/06/18 04:18:08;;;;;;;12.77;7.93;;;;;;;18.92;62.06;101100.03;5099425;28;20507;-77
2023/06/18 04:20:53;;;;;;;11.77;8.23;;;;;;;19.02;61.75;101107.50;5090755;28;20045;-77
2023/06/18 04:23:43;;;;;;;12.75;8.52;;;;;;;19.12;61.58;101110.47;5091773;28;20121;-78
2023/06/18 04:26:29;;;;;;;9.75;8.18;;;;;;;19.17;60.81;101108.34;5095504;27;20048;-79
2023/06/18 04:29:15;;;;;;;10.43;8.27;;;;;;;19.26;60.92;101112.28;5094700;28;20499;-78
2023/06/18 04:32:02;;;;;;;11.95;8.13;;;;;;;19.35;60.74;101109.88;5109821;27;20483;-80
2023/06/18 04:34:47;;;;;;;11.40;7.80;;;;;;;19.49;60.46;101105.47;5082841;28;20083;-81
2023/06/18 04:37:33;;;;;;;13.48;8.77;;;;;;;19.64;60.22;101112.50;5081464;28;20539;-81
2023/06/18 04:40:18;;;;;;;14.98;8.32;;;;;;;19.70;59.69;101116.59;5073139;28;20599;-80
2023/06/18 04:43:05;;;;;;;12.80;8.57;;;;;;;19.78;59.50;101114.31;5080103;28;20044;-80
2023/06/18 04:45:54;;;;;;;11.60;8.57;;;;;;;19.84;59.02;101118.41;5091756;28;20528;-80
2023/06/18 04:48:41;;;;;;;12.23;7.78;;;;;;;19.87;58.85;101120.88;5064522;28;20057;-80
2023/06/18 04:51:26;;;;;;;13.05;8.15;;;;;;;19.89;58.68;101116.28;5092663;28;20128;-79
2023/06/18 04:54:12;;;;;;;10.88;7.53;;;;;;;19.90;59.05;101111.78;5077237;28;20980;-80
2023/06/18 04:56:57;;;;;;;16.52;8.30;;;;;;;19.92;58.66;101112.56;5091218;28;20041;-81
2023/06/18 04:59:42;;;;;;;10.98;8.15;;;;;;;19.92;58.82;101113.44;5075728;28;20047;-80
2023/06/18 05:02:29;;;;;;;11.23;8.15;;;;;;;19.92;58.40;101113.44;5079540;28;20599;-80
2023/06/18 05:05:15;;;;;;;12.65;8.50;;;;;;;19.96;58.46;101111.41;5072078;28;20045;-80
2023/06/18 05:08:01;;;;;;;14.40;8.90;;;;;;;19.98;57.89;101114.84;5079344;28;20053;-81
2023/06/18 05:10:46;;;;;;;9.85;7.93;;;;;;;20.01;58.61;101112.81;5079605;28;20048;-81
2023/06/18 05:13:32;;;;;;;12.05;8.02;;;;;;;20.07;58.38;101106.22;5081618;28;20118;-81
2023/06/18 05:16:17;;;;;;;11.75;8.90;;;;;;;20.20;58.15;101103.56;5058000;28;20053;-76
2023/06/18 05:19:03;;;;;;;12.75;8.70;;;;;;;20.35;57.62;101111.53;5090900;28;20049;-77
2023/06/18 05:21:49;;;;;;;11.43;8.32;;;;;;;20.50;56.98;101105.13;5086481;28;20045;-77
2023/06/18 05:24:39;;;;;;;16.52;9.00;;;;;;;20.59;56.72;101112.53;5088396;28;20053;-77
2023/06/18 05:27:28;;;;;;;12.25;8.63;;;;;;;20.72;56.45;101117.88;5085629;28;20474;-77
2023/06/18 05:30:15;;;;;;;13.82;9.57;;;;;;;20.84;55.69;101115.38;5072188;28;20048;-77
2023/06/18 05:33:00;;;;;;;13.38;8.48;;;;;;;21.14;55.06;101115.06;5081719;28;20041;-77
2023/06/18 05:35:48;;;;;;;10.48;6.40;;;;;;;21.62;53.94;101110.78;5068551;28;20064;-77
2023/06/18 05:38:34;;;;;;;10.07;7.82;;;;;;;22.14;52.17;101111.44;5087114;28;20143;-77
2023/06/18 05:41:20;;;;;;;15.38;9.05;;;;;;;22.38;51.72;101108.75;5100826;28;20901;-77
2023/06/18 05:44:05;;;;;;;11.30;8.07;;;;;;;22.83;50.24;101102.66;5089046;28;20569;-77
2023/06/18 05:46:51;;;;;;;11.00;8.20;;;;;;;23.64;48.50;101099.81;5075162;28;20045;-77
2023/06/18 05:49:36;;;;;;;17.48;9.32;;;;;;;24.45;46.89;101109.34;5101320;28;20045;-77
2023/06/18 05:52:21;;;;;;;12.60;9.50;;;;;;;25.48;44.70;101115.75;5071906;28;20040;-77
2023/06/18 05:55:07;;;;;;;12.38;9.40;;;;;;;26.41;42.82;101117.28;5086994;28;20098;-77
2023/06/18 05:57:54;;;;;;;11.00;8.15;;;;;;;27.20;41.19;101121.53;5083856;28;20045;-77
2023/06/18 06:00:41;;;;;;;11.73;8.88;;;;;;;28.07;39.76;101113.03;5088577;28;20083;-77
2023/06/18 06:03:27;;;;;;;11.07;9.13;;;;;;;28.94;37.44;101115.13;5087897;28;20089;-77
2023/06/18 06:06:13;;;;;;;14.02;9.68;;;;;;;29.65;36.16;101112.19;5084986;28;20044;-77
2023/06/18 06:08:59;;;;;;;13.63;9.13;;;;;;;30.23;34.94;101112.31;5087988;28;20055;-77
2023/06/18 06:11:46;;;;;;;14.05;9.10;;;;;;;30.63;34.20;101113.31;5083600;28;20041;-78
2023/06/18 06:14:31;;;;;;;14.88;9.52;;;;;;;30.91;32.71;101121.94;5088502;28;20048;-78
2023/06/18 06:17:16;;;;;;;12.80;9.13;;;;;;;30.81;33.10;101124.00;5101363;27;20469;-77
2023/06/18 06:20:02;;;;;;;11.20;8.65;;;;;;;30.49;33.20;101123.00;5101738;27;20041;-78
2023/06/18 06:22:49;;;;;;;14.30;10.20;;;;;;;29.59;34.28;101128.16;5091061;28;20052;-77
2023/06/18 06:25:35;;;;;;;14.10;9.90;;;;;;;28.46;35.43;101123.56;5088356;28;20044;-77
2023/06/18 06:28:20;;;;;;;14.25;9.40;;;;;;;27.61;37.46;101131.19;5096866;28;20049;-77
2023/06/18 06:31:06;;;;;;;12.98;10.27;;;;;;;27.00;38.21;101119.91;5088265;28;20044;-77
2023/06/18 06:33:52;;;;;;;11.98;9.70;;;;;;;26.56;38.78;101121.25;5082800;28;20107;-75
2023/06/18 06:36:42;;;;;;;11.18;9.13;;;;;;;26.14;39.76;101118.88;5092077;27;20071;-77
2023/06/18 06:39:27;;;;;;;11.57;9.13;;;;;;;25.82;39.89;101122.63;5095360;27;20675;-75
2023/06/18 06:42:13;;;;;;;10.68;8.55;;;;;;;25.52;40.61;101119.03;5084902;28;20470;-75
2023/06/18 06:45:00;;;;;;;13.15;9.23;;;;;;;25.34;41.31;101127.75;5092939;28;20044;-74
2023/06/18 06:47:49;;;;;;;14.57;8.95;;;;;;;25.30;41.79;101120.91;5098492;28;20118;-75
2023/06/18 06:50:42;;;;;;;9.53;7.70;;;;;;;25.28;41.44;101128.31;5097811;28;20044;-74
2023/06/18 06:53:57;;;;;;;10.63;8.20;;;;;;;25.26;41.72;101122.19;5092584;28;20048;-74
2023/06/18 06:56:42;;;;;;;10.73;8.50;;;;;;;25.27;41.82;101121.19;5109671;28;20052;-74
2023/06/18 06:59:28;;;;;;;12.18;7.22;;;;;;;25.34;41.82;101129.56;5108450;28;20059;-74
2023/06/18 07:02:14;;;;;;;11.23;7.47;;;;;;;25.41;41.59;101131.63;5086730;28;20049;-74
2023/06/18 07:04:59;;;;;;;10.65;7.72;;;;;;;25.50;41.64;101134.50;5108026;28;20129;-74
2023/06/18 07:07:44;;;;;;;11.27;8.07;;;;;;;25.54;41.32;101141.34;5094444;28;20068;-73
2023/06/18 07:10:30;;;;;;;13.38;8.02;;;;;;;25.63;41.09;101134.25;5110041;28;20123;-74
2023/06/18 07:13:15;;;;;;;9.25;7.30;;;;;;;25.81;41.19;101138.00;5102670;28;20048;-75
2023/06/18 07:16:00;;;;;;;10.50;8.35;;;;;;;26.03;40.40;101139.59;5093503;27;20052;-74
2023/06/18 07:18:46;;;;;;;14.48;7.50;;;;;;;26.05;40.11;101136.72;5117682;27;20514;-74
2023/06/18 07:21:31;;;;;;;9.95;7.30;;;;;;;26.16;40.44;101130.38;5119343;27;20070;-74
2023/06/18 07:24:17;;;;;;;9.82;6.30;;;;;;;26.19;40.54;101127.41;5108120;28;20063;-74
2023/06/18 07:27:02;;;;;;;11.23;6.63;;;;;;;26.16;40.44;101133.94;5096685;28;20451;-74
2023/06/18 07:29:47;;;;;;;11.75;6.22;;;;;;;26.10;40.23;101134.50;5105488;27;20126;-74
2023/06/18 07:32:33;;;;;;;8.38;6.57;;;;;;;26.03;40.51;101136.03;5113647;28;20173;-73
2023/06/18 07:35:18;;;;;;;8.98;6.45;;;;;;;26.03;40.64;101136.88;5112284;28;20127;-73
2023/06/18 07:38:03;;;;;;;8.68;5.65;;;;;;;26.07;40.72;101137.44;5109975;28;20040;-74
2023/06/18 07:40:50;;;;;;;10.82;5.97;;;;;;;26.11;40.60;101148.84;5112384;28;20456;-72
2023/06/18 07:43:35;;;;;;;9.60;5.45;;;;;;;26.10;40.10;101147.16;5091697;28;20530;-73
2023/06/18 07:46:21;;;;;;;10.65;5.72;;;;;;;26.05;39.39;101158.34;5084923;28;20055;-73
2023/06/18 07:49:06;;;;;;;8.15;5.47;;;;;;;25.96;38.94;101172.69;5111475;28;20044;-73
2023/06/18 07:51:51;;;;;;;10.82;6.00;;;;;;;25.85;38.51;101168.25;5110853;28;20040;-71
2023/06/18 07:54:36;;;;;;;7.40;5.50;;;;;;;25.74;38.81;101171.94;5111302;28;20115;-71
2023/06/18 07:57:22;;;;;;;9.20;5.90;;;;;;;25.63;38.96;101156.69;5079763;28;20041;-71
2023/06/18 08:00:08;;;;;;;10.38;6.20;;;;;;;25.56;39.00;101169.03;5109451;28;20052;-71
2023/06/18 08:02:59;;;;;;;10.60;6.72;;;;;;;25.54;39.48;101165.63;5110364;27;20048;-71
2023/06/18 08:05:44;;;;;;;10.60;6.43;;;;;;;25.59;39.70;101168.75;5109888;28;20052;-71
2023/06/18 08:08:30;;;;;;;9.65;7.07;;;;;;;25.72;39.60;101160.44;5108901;28;20059;-71
2023/06/18 08:11:17;;;;;;;13.27;6.43;;;;;;;25.88;39.27;101168.00;5110486;28;20051;-71
2023/06/18 08:14:03;;;;;;;10.07;6.63;;;;;;;26.06;39.17;101154.66;5108075;27;20040;-71
2023/06/18 08:16:50;;;;;;;11.45;6.95;;;;;;;26.28;38.94;101156.28;5091792;28;20037;-72
2023/06/18 08:19:35;;;;;;;9.88;7.40;;;;;;;26.47;38.57;101154.56;5088664;28;20048;-72
2023/06/18 08:22:22;;;;;;;10.82;6.82;;;;;;;26.67;37.57;101149.97;5107099;28;20049;-72
2023/06/18 08:25:07;;;;;;;12.75;7.43;;;;;;;26.87;36.72;101139.13;5079791;28;20063;-72
2023/06/18 08:27:54;;;;;;;12.43;7.63;;;;;;;27.10;36.42;101150.50;5092607;27;20048;-72
2023/06/18 08:30:40;;;;;;;10.23;7.38;;;;;;;27.19;35.79;101141.47;5102574;27;20125;-72
2023/06/18 08:33:25;;;;;;;13.80;7.43;;;;;;;27.32;35.13;101140.28;5101309;28;20063;-72
2023/06/18 08:36:10;;;;;;;15.02;7.60;;;;;;;27.40;34.34;101138.53;5107810;28;20159;-72
2023/06/18 08:38:55;;;;;;;14.13;7.00;;;;;;;27.48;34.22;101142.34;5106834;28;20048;-72
2023/06/18 08:41:43;;;;;;;10.93;8.02;;;;;;;27.49;33.19;101144.06;5094664;28;20048;-72
2023/06/18 08:44:36;;;;;;;12.32;8.27;;;;;;;27.41;32.62;101131.28;5095636;28;20752;-72
2023/06/18 08:47:22;;;;;;;11.80;8.10;;;;;;;27.36;33.05;101133.56;5110692;28;20045;-72
2023/06/18 08:50:09;;;;;;;11.70;7.70;;;;;;;27.39;33.09;101133.28;5090917;28;20658;-72
2023/06/18 08:53:09;;;;;;;12.60;8.70;;;;;;;27.50;33.16;101125.00;5109357;28;20036;-72
2023/06/18 08:55:54;;;;;;;13.43;8.10;;;;;;;27.61;32.70;101132.03;5091596;28;20044;-72
2023/06/18 08:58:52;;;;;;;14.48;8.65;;;;;;;27.72;32.08;101134.53;5110776;28;20640;-72
2023/06/18 09:01:38;;;;;;;9.75;7.68;;;;;;;27.74;32.75;101132.53;5111101;28;20051;-73
2023/06/18 09:04:26;;;;;;;9.55;8.55;;;;;;;27.76;32.12;101128.81;5105003;28;20044;-72
2023/06/18 09:07:11;;;;;;;11.65;6.95;;;;;;;27.75;31.84;101138.78;5110112;28;20087;-72
2023/06/18 09:09:57;;;;;;;11.07;7.55;;;;;;;27.77;32.56;101136.78;5095792;28;20125;-72
2023/06/18 09:12:42;;;;;;;11.80;8.15;;;;;;;27.81;32.49;101135.50;5110862;28;20040;-72
2023/06/18 09:15:27;;;;;;;10.02;7.35;;;;;;;27.83;32.10;101128.03;5090844;28;20550;-72
2023/06/18 09:18:13;;;;;;;11.57;7.93;;;;;;;27.82;32.34;101129.06;5091210;28;20576;-72
2023/06/18 09:20:58;;;;;;;12.88;7.15;;;;;;;27.80;31.90;101133.78;5088616;28;20532;-73
2023/06/18 09:23:53;;;;;;;10.57;7.72;;;;;;;27.73;31.90;101130.81;5098638;28;20051;-73
2023/06/18 09:26:39;;;;;;;9.93;7.22;;;;;;;27.60;31.98;101133.03;5110699;28;20045;-71
2023/06/18 09:29:29;;;;;;;10.52;7.07;;;;;;;27.57;32.45;101136.06;5110828;28;20052;-72
2023/06/18 09:32:14;;;;;;;13.27;7.10;;;;;;;27.54;32.16;101131.78;5103063;27;20048;-71
2023/06/18 09:35:13;;;;;;;8.85;7.78;;;;;;;27.52;32.44;101128.38;5108434;28;20056;-72
2023/06/18 09:38:09;;;;;;;12.38;7.63;;;;;;;27.51;32.22;101125.81;5110483;28;20040;-72
2023/06/18 09:40:54;;;;;;;9.93;7.03;;;;;;;27.46;32.29;101133.56;5078928;28;20117;-72
2023/06/18 09:43:43;;;;;;;9.05;6.38;;;;;;;27.38;32.66;101123.44;5109666;28;20475;-71
2023/06/18 09:46:29;;;;;;;8.73;5.80;;;;;;;27.36;33.23;101122.75;5092812;28;20047;-71
2023/06/18 09:49:20;;;;;;;9.20;5.88;;;;;;;27.39;33.55;101122.44;5088889;28;20052;-71
2023/06/18 09:52:09;;;;;;;12.00;6.10;;;;;;;27.42;32.90;101119.44;5073329;28;20119;-73
2023/06/18 09:54:56;;;;;;;9.18;6.05;;;;;;;27.46;33.37;101120.03;5091342;28;20123;-71
2023/06/18 09:57:50;;;;;;;7.63;5.90;;;;;;;27.48;33.34;101124.28;5094759;28;20087;-71
2023/06/18 10:00:36;;;;;;;8.35;6.35;;;;;;;27.49;33.49;101120.56;5104439;28;20507;-71
2023/06/18 10:03:22;;;;;;;8.48;5.88;;;;;;;27.57;33.42;101125.25;5104804;28;20044;-72
2023/06/18 10:06:27;;;;;;;9.15;5.93;;;;;;;27.66;33.20;101123.47;5102331;28;20048;-72
2023/06/18 10:09:12;;;;;;;8.77;6.13;;;;;;;27.67;33.63;101125.16;5089328;28;20048;-72
2023/06/18 10:12:01;;;;;;;8.95;6.25;;;;;;;27.74;33.45;101121.69;5104917;28;20572;-72
2023/06/18 10:14:53;;;;;;;10.48;6.22;;;;;;;27.78;33.34;101119.53;5110083;28;20614;-72
2023/06/18 10:17:50;;;;;;;10.45;6.78;;;;;;;27.80;32.98;101117.53;5089529;28;20048;-72
2023/06/18 10:20:36;;;;;;;8.27;6.32;;;;;;;27.69;33.25;101112.34;5087780;28;20044;-72
2023/06/18 10:23:24;;;;;;;10.20;6.43;;;;;;;27.64;33.34;101114.63;5091322;28;20048;-72
2023/06/18 10:26:11;;;;;;;8.63;5.85;;;;;;;27.55;33.46;101113.69;5104434;28;20051;-72
2023/06/18 10:28:56;;;;;;;9.82;6.80;;;;;;;27.37;34.16;101113.63;5096950;28;20032;-72
2023/06/18 10:31:42;;;;;;;8.13;6.57;;;;;;;27.25;34.21;101113.81;5107237;28;20048;-72
2023/06/18 10:34:28;;;;;;;10.68;5.85;;;;;;;27.11;34.51;101109.75;5101868;27;20555;-72
2023/06/18 10:37:14;;;;;;;9.60;6.38;;;;;;;27.11;34.73;101111.63;5087348;28;20048;-71
2023/06/18 10:40:02;;;;;;;9.48;6.47;;;;;;;27.15;34.83;101112.16;5102364;28;20088;-71
2023/06/18 10:42:49;;;;;;;8.48;6.38;;;;;;;27.20;34.63;101109.84;5107311;28;20048;-71
2023/06/18 10:45:35;;;;;;;11.13;7.22;;;;;;;27.18;34.62;101111.84;5105038;28;20036;-72
2023/06/18 10:48:23;;;;;;;17.05;7.18;;;;;;;27.15;35.51;101107.59;5108980;28;20095;-71
2023/06/18 10:51:14;;;;;;;10.43;7.38;;;;;;;27.12;35.76;101107.88;5109404;28;20043;-73
2023/06/18 10:54:26;;;;;;;10.02;7.90;;;;;;;27.00;36.53;101119.91;5106570;28;20124;-71
2023/06/18 10:57:13;;;;;;;11.95;7.43;;;;;;;26.72;37.83;101117.09;5108021;28;20040;-71
2023/06/18 10:59:59;;;;;;;13.70;7.65;;;;;;;26.47;39.99;101116.72;5112253;28;20135;-71
2023/06/18 11:02:47;;;;;;;10.95;8.00;;;;;;;26.32;41.60;101108.19;5096350;28;20040;-72
2023/06/18 11:05:34;;;;;;;11.98;8.85;;;;;;;26.16;40.95;101103.38;5111965;28;20055;-72
2023/06/18 11:08:34;;;;;;;12.25;8.07;;;;;;;26.06;41.33;101103.31;5094850;28;20044;-72
2023/06/18 11:11:24;;;;;;;14.02;7.85;;;;;;;26.17;42.15;101097.81;5110529;28;20044;-72
2023/06/18 11:14:20;;;;;;;13.98;8.48;;;;;;;26.44;41.84;101095.38;5109358;27;20563;-72
2023/06/18 11:17:10;;;;;;;12.00;7.78;;;;;;;26.70;41.46;101087.50;5095918;28;20109;-73
2023/06/18 11:19:58;;;;;;;8.90;7.85;;;;;;;26.84;40.52;101088.91;5109696;28;20166;-72
2023/06/18 11:22:44;;;;;;;10.55;8.55;;;;;;;27.04;40.68;101081.59;5108199;27;20044;-72
2023/06/18 11:25:30;;;;;;;11.32;8.20;;;;;;;27.26;40.46;101090.31;5109976;27;20925;-72
2023/06/18 11:28:16;;;;;;;10.48;8.50;;;;;;;27.52;39.21;101086.94;5110070;28;20040;-72
2023/06/18 11:31:04;;;;;;;14.30;8.75;;;;;;;27.80;38.55;101078.75;5108561;27;20055;-72
2023/06/18 11:33:49;;;;;;;11.93;8.13;;;;;;;27.93;38.08;101078.38;5100397;28;20040;-73
2023/06/18 11:36:39;;;;;;;13.98;8.10;;;;;;;27.88;37.55;101076.97;5109239;28;20110;-72
2023/06/18 11:39:25;;;;;;;8.85;7.40;;;;;;;27.71;37.42;101069.72;5107956;28;20040;-72
2023/06/18 11:42:21;;;;;;;20.80;7.95;;;;;;;27.61;37.73;101067.06;5104868;28;20067;-72
2023/06/18 11:45:07;;;;;;;11.27;7.80;;;;;;;27.51;37.99;101056.31;5110154;27;20516;-73
2023/06/18 11:47:52;;;;;;;7.93;7.13;;;;;;;27.37;37.07;101052.22;5111373;27;20044;-73
2023/06/18 11:50:37;;;;;;;8.65;7.13;;;;;;;27.11;37.46;101052.94;5110777;28;20048;-72
2023/06/18 11:53:23;;;;;;;10.85;6.57;;;;;;;26.96;38.34;101060.69;5109859;28;20044;-72
2023/06/18 11:56:09;;;;;;;9.23;6.95;;;;;;;26.96;38.60;101062.56;5110281;28;20044;-73
2023/06/18 11:58:57;;;;;;;9.60;7.32;;;;;;;27.04;38.29;101059.94;5105488;28;20571;-73
2023/06/18 12:01:44;;;;;;;8.13;6.68;;;;;;;27.05;37.70;101049.97;5095736;28;20436;-73
2023/06/18 12:04:30;;;;;;;7.60;6.78;;;;;;;26.97;37.40;101051.56;5107322;28;20428;-72
2023/06/18 12:07:23;;;;;;;7.75;5.80;;;;;;;27.00;38.00;101058.53;5101223;28;20059;-72
2023/06/18 12:10:12;;;;;;;12.93;7.47;;;;;;;27.11;38.22;101057.50;5110060;28;20121;-73
2023/06/18 12:13:37;;;;;;;12.05;7.07;;;;;;;27.25;37.72;101048.03;5095039;27;20119;-72
2023/06/18 12:16:28;;;;;;;9.75;6.75;;;;;;;27.40;37.21;101032.13;5090675;28;20040;-72
2023/06/18 12:19:14;;;;;;;11.43;5.97;;;;;;;27.48;36.83;101034.09;5090257;28;20049;-73
2023/06/18 12:22:00;;;;;;;7.93;5.85;;;;;;;27.40;36.29;101026.72;5099838;27;20048;-73
2023/06/18 12:24:45;;;;;;;8.50;6.50;;;;;;;27.17;36.97;101026.25;5104166;28;20482;-73
2023/06/18 12:27:31;;;;;;;8.57;5.85;;;;;;;26.99;37.27;101023.53;5110447;28;20060;-73
2023/06/18 12:30:17;;;;;;;6.82;5.97;;;;;;;26.90;37.65;101031.53;5117877;27;20123;-73
2023/06/18 12:33:11;;;;;;;10.45;5.63;;;;;;;26.84;37.54;101023.19;5109959;28;20174;-73
2023/06/18 12:35:58;;;;;;;5.80;5.20;;;;;;;26.78;38.22;101011.94;5115761;27;20040;-73
2023/06/18 12:38:45;;;;;;;6.25;5.13;;;;;;;26.85;37.86;101011.34;5111796;27;20051;-73
2023/06/18 12:41:35;;;;;;;5.95;5.10;;;;;;;26.91;37.70;101003.47;5111776;27;20090;-73
2023/06/18 12:44:21;;;;;;;8.55;5.80;;;;;;;26.97;37.59;101008.31;5106525;27;20757;-73
2023/06/18 12:47:09;;;;;;;10.55;5.65;;;;;;;27.01;37.30;100999.91;5113573;27;20067;-73
2023/06/18 12:49:54;;;;;;;10.63;5.38;;;;;;;26.99;37.59;101005.44;5110099;27;20079;-72
2023/06/18 12:52:43;;;;;;;6.53;5.00;;;;;;;27.01;38.03;101008.00;5110808;27;20044;-73
2023/06/18 12:55:28;;;;;;;7.00;4.70;;;;;;;27.00;38.00;101001.72;5110623;28;20044;-73